Time;durP1;ratioP1;P1;durP2;ratioP2;P2;SDS_P1;SDS_P2;PMS_P1;PMS_P2;Temp;Humidity;BMP_temperature;BMP_pressure;BME280_temperature;BME280_humidity;BME280_pressure;Samples;Min_cycle;Max_cycle;Signal;HPM_P1;HPM_P2
2021/03/16 00:00:23;;;;;;;37.43;23.87;;;;;;;2.18;74.41;98691.29;510576;1102;114007;-69
2021/03/16 00:10:32;;;;;;;42.50;28.97;;;;;;;2.21;74.49;98692.00;510588;1102;115264;-69
2021/03/16 00:20:39;;;;;;;46.63;28.43;;;;;;;2.16;74.52;98701.73;510672;1102;114697;-70
2021/03/16 00:30:43;;;;;;;72.97;45.50;;;;;;;2.16;74.76;98704.33;510640;1102;114530;-70
2021/03/16 00:40:49;;;;;;;51.03;34.77;;;;;;;2.14;74.80;98711.33;510557;1101;114416;-69
2021/03/16 00:50:52;;;;;;;46.83;30.13;;;;;;;2.15;75.28;98691.43;510868;1102;114113;-69
2021/03/16 01:00:57;;;;;;;43.00;27.50;;;;;;;2.15;75.94;98694.02;510461;1102;114123;-70
2021/03/16 01:11:01;;;;;;;47.70;29.37;;;;;;;2.07;75.86;98709.90;510729;1102;114680;-70
2021/03/16 01:21:05;;;;;;;78.43;48.53;;;;;;;2.02;76.41;98702.33;510383;1102;114712;-69
2021/03/16 01:31:09;;;;;;;77.93;49.57;;;;;;;1.99;76.28;98694.70;510495;1102;114119;-69
2021/03/16 01:41:13;;;;;;;63.70;42.10;;;;;;;2.01;76.71;98698.06;510692;1102;114185;-70
2021/03/16 01:51:19;;;;;;;71.50;42.03;;;;;;;1.99;77.03;98693.84;510937;1102;114364;-70
2021/03/16 02:01:22;;;;;;;69.35;42.15;;;;;;;1.90;76.49;98710.63;510933;1102;114807;-70
2021/03/16 02:11:33;;;;;;;78.63;47.53;;;;;;;1.79;77.18;98714.50;510472;1102;114739;-69
2021/03/16 02:21:38;;;;;;;79.93;52.60;;;;;;;1.77;77.20;98715.47;510361;1102;114098;-69
2021/03/16 02:31:44;;;;;;;78.10;53.78;;;;;;;1.59;77.16;98711.90;510903;1101;114226;-72
2021/03/16 02:41:50;;;;;;;79.50;49.27;;;;;;;1.22;76.85;98712.49;510743;1101;114416;-70
2021/03/16 02:51:55;;;;;;;87.50;52.13;;;;;;;0.99;77.60;98731.51;511108;1101;114464;-69
2021/03/16 03:02:00;;;;;;;87.37;55.23;;;;;;;0.99;77.98;98723.75;511151;1102;114270;-70
2021/03/16 03:12:05;;;;;;;74.20;50.13;;;;;;;1.03;78.65;98737.38;510919;1102;114566;-69
2021/03/16 03:22:15;;;;;;;83.67;52.73;;;;;;;1.02;79.04;98740.87;510801;1101;114107;-70
2021/03/16 03:32:22;;;;;;;77.20;46.87;;;;;;;0.92;78.78;98741.22;510937;1102;115050;-68
2021/03/16 03:42:29;;;;;;;74.10;47.20;;;;;;;0.82;78.48;98747.66;510959;1102;114088;-70
2021/03/16 03:52:34;;;;;;;60.03;37.60;;;;;;;0.77;78.28;98750.41;511020;1102;114085;-71
2021/03/16 04:02:39;;;;;;;60.10;41.13;;;;;;;0.72;78.92;98756.66;510855;1102;114101;-70
2021/03/16 04:12:44;;;;;;;67.17;44.10;;;;;;;0.65;79.45;98761.20;510927;1102;114078;-70
2021/03/16 04:22:49;;;;;;;67.20;41.40;;;;;;;0.59;78.89;98770.03;511032;1101;114782;-69
2021/03/16 04:32:53;;;;;;;73.00;48.50;;;;;;;0.47;79.52;98768.71;510995;1102;114178;-70
2021/03/16 04:42:59;;;;;;;76.20;50.00;;;;;;;0.30;78.92;98781.39;511030;1102;114164;-70
2021/03/16 04:53:05;;;;;;;69.17;45.07;;;;;;;0.12;79.90;98789.73;510861;1101;114279;-71
2021/03/16 05:03:10;;;;;;;75.00;46.93;;;;;;;0.07;79.94;98788.19;510966;1100;114113;-70
2021/03/16 05:13:14;;;;;;;67.97;47.57;;;;;;;0.22;80.34;98795.41;510993;1102;114776;-69
2021/03/16 05:23:19;;;;;;;66.70;43.33;;;;;;;0.41;80.88;98800.77;510851;1102;114100;-70
2021/03/16 05:33:22;;;;;;;74.90;49.87;;;;;;;0.75;80.46;98805.63;510752;1101;114647;-69
2021/03/16 05:43:26;;;;;;;77.07;52.60;;;;;;;1.33;79.88;98820.72;510685;1102;114044;-69
2021/03/16 05:53:29;;;;;;;76.17;51.03;;;;;;;2.93;80.32;98824.48;510881;1101;114144;-71
2021/03/16 06:03:35;;;;;;;71.60;47.70;;;;;;;2.69;77.91;98834.18;510971;1102;114139;-69
2021/03/16 06:13:50;;;;;;;86.03;55.23;;;;;;;2.73;77.62;98840.08;511244;1101;114000;-70
2021/03/16 06:23:57;;;;;;;75.80;50.30;;;;;;;2.88;77.28;98844.58;510917;1101;114443;-69
2021/03/16 06:34:01;;;;;;;74.27;49.20;;;;;;;3.27;77.24;98853.23;511074;1102;114122;-69
2021/03/16 06:44:06;;;;;;;74.95;51.30;;;;;;;3.60;76.99;98856.95;510776;1102;114217;-69
2021/03/16 06:54:11;;;;;;;78.57;53.30;;;;;;;4.35;77.08;98873.22;510786;1101;114084;-68
2021/03/16 07:04:19;;;;;;;81.63;54.10;;;;;;;5.23;75.24;98874.82;510843;1102;114218;-68
2021/03/16 07:14:33;;;;;;;74.53;50.47;;;;;;;7.66;74.48;98876.50;510888;1101;114431;-69
2021/03/16 07:24:41;;;;;;;82.87;62.17;;;;;;;13.06;67.82;98874.42;510014;1102;114564;-69
2021/03/16 07:34:52;;;;;;;52.87;43.60;;;;;;;19.57;61.58;98878.53;510815;1102;114785;-68
2021/03/16 07:44:57;;;;;;;49.67;39.27;;;;;;;23.27;54.29;98886.05;510948;1102;114966;-64
2021/03/16 07:55:03;;;;;;;36.57;31.90;;;;;;;24.77;49.16;98889.70;510534;1101;114830;-65
2021/03/16 08:05:14;;;;;;;;;;;;;;;26.34;44.82;98892.35;509111;1102;10003276;-75
2021/03/16 08:15:19;;;;;;;26.77;24.13;;;;;;;26.92;41.42;98900.35;510987;1101;100968;-66
2021/03/16 08:25:26;;;;;;;25.27;22.70;;;;;;;23.59;40.09;98902.47;510262;1102;114956;-74
2021/03/16 08:35:29;;;;;;;24.97;22.40;;;;;;;18.24;42.20;98909.03;510297;1101;114471;-65
2021/03/16 08:45:33;;;;;;;23.45;20.95;;;;;;;14.52;43.60;98927.63;510479;1102;114501;-66
2021/03/16 08:55:37;;;;;;;22.10;18.55;;;;;;;13.11;45.65;98932.01;510490;1102;115700;-66
2021/03/16 09:05:44;;;;;;;19.35;16.52;;;;;;;12.64;47.09;98948.20;510594;1102;115413;-65
2021/03/16 09:15:50;;;;;;;24.70;19.83;;;;;;;12.03;47.39;98948.68;510188;1101;114421;-63
2021/03/16 09:25:54;;;;;;;25.57;20.93;;;;;;;11.33;48.19;98950.64;511318;1102;114474;-65
2021/03/16 09:35:59;;;;;;;28.33;23.27;;;;;;;10.64;49.31;98955.77;510359;1102;114528;-64
2021/03/16 09:46:07;;;;;;;26.60;21.10;;;;;;;10.29;49.62;98963.62;511173;1101;114468;-63
2021/03/16 09:56:11;;;;;;;;;;;;;;;9.50;51.79;98970.03;511156;1102;114432;-67
2021/03/16 10:06:15;;;;;;;36.37;29.30;;;;;;;9.58;51.82;98974.73;511023;1102;100055;-67
2021/03/16 10:16:23;;;;;;;34.60;27.87;;;;;;;9.53;52.46;98980.28;510721;1102;114388;-67
2021/03/16 10:26:26;;;;;;;39.70;29.63;;;;;;;9.57;52.62;98986.16;511027;1101;114287;-65
2021/03/16 10:36:35;;;;;;;33.30;25.40;;;;;;;9.88;52.50;98987.45;511143;1102;114182;-66
2021/03/16 10:46:45;;;;;;;39.20;27.80;;;;;;;8.77;53.39;98988.87;511135;1101;114263;-63
2021/03/16 10:56:50;;;;;;;34.27;26.63;;;;;;;7.97;54.86;99008.73;510880;1101;114155;-65
2021/03/16 11:06:54;;;;;;;32.87;26.10;;;;;;;7.66;55.69;99010.63;511100;1102;114237;-63
2021/03/16 11:16:58;;;;;;;34.27;23.03;;;;;;;7.75;55.87;99003.16;511007;1102;114115;-70
2021/03/16 11:27:02;;;;;;;28.47;20.77;;;;;;;7.70;55.75;98998.22;510518;1102;114211;-65
2021/03/16 11:37:06;;;;;;;28.50;18.60;;;;;;;7.96;55.67;99006.20;510553;1102;114473;-68
2021/03/16 11:47:19;;;;;;;26.85;21.30;;;;;;;8.03;55.00;98996.20;511267;1102;114218;-65
2021/03/16 11:57:23;;;;;;;27.10;20.83;;;;;;;8.00;55.08;98991.98;510773;1102;114198;-61
2021/03/16 12:07:26;;;;;;;28.43;22.13;;;;;;;7.92;55.96;98992.48;511129;1101;114564;-61
2021/03/16 12:17:29;;;;;;;29.60;22.30;;;;;;;7.79;56.51;98981.12;511048;1102;114204;-61
2021/03/16 12:27:33;;;;;;;32.50;24.67;;;;;;;7.80;56.53;98985.41;511062;1102;114157;-61
2021/03/16 12:37:37;;;;;;;26.83;20.40;;;;;;;7.89;55.63;98984.84;511029;1102;114614;-64
2021/03/16 12:47:41;;;;;;;21.47;17.60;;;;;;;7.91;55.35;98984.75;511130;1102;114216;-65
2021/03/16 12:57:45;;;;;;;24.00;17.65;;;;;;;8.12;54.79;98996.44;511225;1102;114514;-65
2021/03/16 13:07:48;;;;;;;19.60;14.95;;;;;;;7.94;54.14;98998.45;511105;1102;114120;-62
2021/03/16 13:17:51;;;;;;;18.43;14.40;;;;;;;7.84;54.19;99002.56;511036;1102;114534;-65
2021/03/16 13:28:01;;;;;;;17.03;13.63;;;;;;;7.91;54.01;99010.89;511117;1102;114375;-68
2021/03/16 13:38:07;;;;;;;15.03;12.87;;;;;;;7.88;53.56;99008.45;510991;1102;114448;-71
2021/03/16 13:48:11;;;;;;;15.60;11.00;;;;;;;8.03;53.20;99011.89;511047;1102;114045;-71
2021/03/16 13:58:16;;;;;;;12.70;11.07;;;;;;;8.41;52.36;99016.44;511043;1102;114124;-69
2021/03/16 14:08:23;;;;;;;8.00;6.97;;;;;;;8.54;51.07;99014.77;511060;1102;114129;-65
2021/03/16 14:18:26;;;;;;;14.90;8.17;;;;;;;8.34;51.54;99013.39;510958;1102;113840;-69
2021/03/16 14:28:30;;;;;;;8.87;7.10;;;;;;;8.44;50.54;99021.50;511186;1102;114885;-67
2021/03/16 14:38:33;;;;;;;12.93;8.13;;;;;;;8.64;49.88;99022.00;511804;1102;114122;-67
2021/03/16 14:48:36;;;;;;;10.10;7.47;;;;;;;8.71;50.15;99036.38;511111;1101;113948;-70
2021/03/16 14:58:41;;;;;;;9.43;7.47;;;;;;;8.23;49.48;99034.16;511275;1101;114013;-65
2021/03/16 15:08:47;;;;;;;11.10;7.97;;;;;;;7.78;50.77;99042.98;511004;1102;114217;-66
2021/03/16 15:18:50;;;;;;;14.47;9.57;;;;;;;7.26;51.31;99046.97;511003;1101;114283;-67
2021/03/16 15:28:54;;;;;;;13.50;10.13;;;;;;;6.75;51.67;99055.13;511729;1102;114345;-68
2021/03/16 15:38:57;;;;;;;14.80;9.10;;;;;;;6.36;52.21;99060.73;511103;1102;114282;-66
2021/03/16 15:49:01;;;;;;;15.03;9.93;;;;;;;6.08;52.74;99061.39;510861;1102;114036;-68
2021/03/16 15:59:04;;;;;;;14.73;10.57;;;;;;;5.82;53.16;99084.45;511107;1101;114419;-68
2021/03/16 16:09:09;;;;;;;13.67;10.20;;;;;;;5.66;54.42;99087.01;511186;1101;114515;-67
2021/03/16 16:19:12;;;;;;;19.87;10.77;;;;;;;5.57;55.00;99102.18;510886;1101;114246;-68
2021/03/16 16:29:16;;;;;;;14.85;9.90;;;;;;;5.56;56.34;99110.09;511060;1102;114115;-68
2021/03/16 16:39:22;;;;;;;13.03;10.53;;;;;;;5.30;57.79;99130.45;511059;1102;115036;-69
2021/03/16 16:49:25;;;;;;;14.23;11.63;;;;;;;4.84;58.77;99152.59;511298;1102;114162;-69
2021/03/16 16:59:29;;;;;;;19.40;12.83;;;;;;;4.43;59.44;99152.77;511219;1101;114102;-68
2021/03/16 17:09:35;;;;;;;19.50;12.70;;;;;;;4.00;60.80;99169.37;511056;1102;114740;-68
2021/03/16 17:19:38;;;;;;;20.17;11.97;;;;;;;3.63;62.10;99184.77;511445;1102;114242;-68
2021/03/16 17:29:42;;;;;;;14.17;11.80;;;;;;;3.30;63.08;99192.20;511238;1100;114278;-68
2021/03/16 17:39:45;;;;;;;17.37;12.53;;;;;;;3.12;63.58;99218.00;510702;1100;114202;-67
2021/03/16 17:49:51;;;;;;;17.20;11.70;;;;;;;3.00;63.55;99221.04;511270;1100;114636;-63
2021/03/16 17:59:54;;;;;;;22.07;13.43;;;;;;;2.81;64.11;99226.95;511073;1101;114202;-68
2021/03/16 18:09:58;;;;;;;22.87;15.10;;;;;;;2.65;64.69;99227.54;511434;1102;114237;-65
2021/03/16 18:20:01;;;;;;;32.43;19.43;;;;;;;2.60;65.46;99231.20;511371;1101;114409;-69
2021/03/16 18:30:09;;;;;;;25.07;17.70;;;;;;;2.59;65.64;99245.03;511089;1102;114127;-65
2021/03/16 18:40:14;;;;;;;29.00;19.33;;;;;;;2.70;65.99;99250.67;511383;1102;114225;-64
2021/03/16 18:50:24;;;;;;;37.77;23.10;;;;;;;2.81;66.04;99247.70;511413;1102;114384;-66
2021/03/16 19:00:32;;;;;;;31.70;22.27;;;;;;;2.96;66.61;99246.28;511357;1102;114180;-68
2021/03/16 19:10:35;;;;;;;31.68;20.35;;;;;;;3.04;66.85;99243.38;501946;1102;10001805;-54
2021/03/16 19:20:41;;;;;;;35.90;22.70;;;;;;;3.12;66.53;99254.31;510481;1102;114981;-60
2021/03/16 19:30:44;;;;;;;36.55;22.80;;;;;;;3.21;67.45;99260.89;510559;1102;114176;-59
2021/03/16 19:40:54;;;;;;;34.87;22.87;;;;;;;3.26;67.67;99265.91;510685;1102;115068;-60
2021/03/16 19:50:59;;;;;;;28.60;18.63;;;;;;;3.21;67.56;99266.91;510556;1102;114087;-59
2021/03/16 20:01:02;;;;;;;22.23;15.13;;;;;;;3.17;67.94;99267.08;510732;1101;114496;-55
2021/03/16 20:11:09;;;;;;;20.00;15.37;;;;;;;3.07;68.34;99271.79;510808;1102;114125;-59
2021/03/16 20:21:13;;;;;;;20.20;15.00;;;;;;;2.99;68.50;99274.69;510568;1101;114225;-60
2021/03/16 20:31:20;;;;;;;22.83;14.67;;;;;;;2.89;69.21;99275.93;510750;1100;114365;-54
2021/03/16 20:41:24;;;;;;;22.32;16.67;;;;;;;2.68;69.28;99275.81;510759;1102;114573;-54
2021/03/16 20:51:28;;;;;;;23.80;16.07;;;;;;;2.42;69.78;99276.75;510830;1102;115127;-56
2021/03/16 21:01:31;;;;;;;25.75;16.15;;;;;;;2.14;70.88;99288.09;510161;1102;114170;-62
2021/03/16 21:11:35;;;;;;;26.70;17.93;;;;;;;1.93;70.94;99287.91;510450;1102;114078;-57
2021/03/16 21:21:42;;;;;;;24.17;15.07;;;;;;;1.81;71.41;99300.36;510539;1100;114557;-66
2021/03/16 21:31:46;;;;;;;24.80;17.00;;;;;;;1.77;72.65;99303.95;510523;1102;114221;-61
2021/03/16 21:41:50;;;;;;;26.47;15.53;;;;;;;1.84;72.23;99309.78;510187;1102;114517;-60
2021/03/16 21:51:54;;;;;;;28.17;17.37;;;;;;;1.88;72.94;99311.36;510611;1102;114355;-60
2021/03/16 22:01:57;;;;;;;27.87;18.80;;;;;;;1.82;72.40;99312.41;510538;1101;114679;-60
2021/03/16 22:12:01;;;;;;;27.43;18.17;;;;;;;1.76;73.02;99317.80;510467;1102;114217;-60
2021/03/16 22:22:07;;;;;;;29.23;18.57;;;;;;;1.57;73.44;99312.37;510854;1102;114111;-59
2021/03/16 22:32:11;;;;;;;28.40;17.57;;;;;;;1.35;73.12;99313.03;510684;1102;115049;-60
2021/03/16 22:42:14;;;;;;;25.77;16.83;;;;;;;1.31;74.50;99316.59;510716;1100;114580;-61
2021/03/16 22:52:17;;;;;;;31.77;20.10;;;;;;;1.45;74.66;99336.88;510825;1101;114485;-59
2021/03/16 23:02:24;;;;;;;24.55;17.05;;;;;;;1.43;74.72;99330.91;510215;1102;114148;-58
2021/03/16 23:12:27;;;;;;;27.70;19.10;;;;;;;1.38;75.72;99331.04;511170;1100;114483;-58
2021/03/16 23:22:31;;;;;;;28.13;17.47;;;;;;;1.33;75.88;99324.31;511106;1102;114145;-60
2021/03/16 23:32:35;;;;;;;30.70;19.20;;;;;;;1.28;75.60;99324.45;510704;1102;114530;-61
2021/03/16 23:42:38;;;;;;;32.50;18.37;;;;;;;1.31;75.71;99328.69;510897;1100;114145;-60
2021/03/16 23:52:42;;;;;;;36.17;21.30;;;;;;;1.34;76.14;99336.34;510878;1102;115097;-60
